THA202 ZPPP-VTBS
Flight info
| Callsign | THA202 |
|---|---|
| Flight time | N/A |
| Altitude | 38100 |
| Route | ELA9Z ELASU A581 BIDRU/K0895S1130 A581 SAGAG/N0482F380 B218 LPB B346 NOBER NORTA1C |
| Aircraft | B77W/H-SDE1E2E3FGHIJ2J3J4J5M1RWXY/LB1D1 |
Departure
| Time | 2026-04-27 17:10 |
|---|---|
| Airport | Kunming Changshui International Airport (ZPPP) |
Arrival
| Time | N/A |
|---|---|
| Airport | Suvarnabhumi Airport (VTBS) |
| Time | Latitude | Longitude | Altitude | Speed | Heading |
|---|---|---|---|---|---|
| 2026-04-27 16:57 | 25.10221 | 102.93257 | 6920 ft | 0 kts | 9° |
| 2026-04-27 17:01 | 25.10220 | 102.93257 | 6920 ft | 0 kts | 9° |
| 2026-04-27 17:01 | 25.10218 | 102.93257 | 6920 ft | 1 kts | 9° |
| 2026-04-27 17:02 | 25.10204 | 102.93255 | 6920 ft | 2 kts | 9° |
| 2026-04-27 17:02 | 25.10199 | 102.93254 | 6920 ft | 2 kts | 9° |
| 2026-04-27 17:02 | 25.10195 | 102.93253 | 6920 ft | 2 kts | 13° |
| 2026-04-27 17:02 | 25.10191 | 102.93252 | 6920 ft | 2 kts | 20° |
| 2026-04-27 17:03 | 25.10187 | 102.93250 | 6920 ft | 2 kts | 30° |
| 2026-04-27 17:03 | 25.10181 | 102.93246 | 6920 ft | 2 kts | 42° |
| 2026-04-27 17:03 | 25.10172 | 102.93234 | 6920 ft | 2 kts | 64° |
| 2026-04-27 17:03 | 25.10168 | 102.93211 | 6920 ft | 1 kts | 97° |
| 2026-04-27 17:04 | 25.10169 | 102.93203 | 6920 ft | 0 kts | 102° |
| 2026-04-27 17:05 | 25.10169 | 102.93204 | 6920 ft | 0 kts | 101° |
| 2026-04-27 17:05 | 25.10163 | 102.93237 | 6920 ft | 5 kts | 99° |
| 2026-04-27 17:06 | 25.10158 | 102.93269 | 6920 ft | 5 kts | 100° |
| 2026-04-27 17:06 | 25.10152 | 102.93306 | 6920 ft | 7 kts | 99° |
| 2026-04-27 17:06 | 25.10141 | 102.93362 | 6920 ft | 12 kts | 103° |
| 2026-04-27 17:06 | 25.10102 | 102.93488 | 6920 ft | 9 kts | 114° |
| 2026-04-27 17:07 | 25.10066 | 102.93558 | 6920 ft | 9 kts | 123° |
| 2026-04-27 17:07 | 25.10006 | 102.93651 | 6920 ft | 15 kts | 124° |
| 2026-04-27 17:07 | 25.10027 | 102.93748 | 6920 ft | 15 kts | 45° |
| 2026-04-27 17:07 | 25.10123 | 102.93835 | 6920 ft | 27 kts | 38° |
| 2026-04-27 17:08 | 25.10452 | 102.94122 | 6920 ft | 76 kts | 39° |
| 2026-04-27 17:08 | 25.10850 | 102.94468 | 6920 ft | 70 kts | 40° |
| 2026-04-27 17:08 | 25.11206 | 102.94777 | 6920 ft | 58 kts | 38° |
| 2026-04-27 17:08 | 25.11513 | 102.95044 | 6919 ft | 55 kts | 39° |
| 2026-04-27 17:09 | 25.11707 | 102.95254 | 6919 ft | 24 kts | 83° |
| 2026-04-27 17:09 | 25.11633 | 102.95372 | 6919 ft | 14 kts | 175° |
| 2026-04-27 17:09 | 25.11506 | 102.95280 | 6919 ft | 51 kts | 218° |
| 2026-04-27 17:09 | 25.11002 | 102.94844 | 6920 ft | 131 kts | 218° |
| 2026-04-27 17:10 | 25.10097 | 102.94067 | 7058 ft | 188 kts | 217° |
| 2026-04-27 17:10 | 25.09010 | 102.93164 | 7844 ft | 202 kts | 218° |
| 2026-04-27 17:10 | 25.07979 | 102.92277 | 8992 ft | 185 kts | 220° |
| 2026-04-27 17:10 | 25.07140 | 102.91501 | 9224 ft | 198 kts | 225° |
| 2026-04-27 17:11 | 25.05969 | 102.90277 | 9477 ft | 218 kts | 226° |
| 2026-04-27 17:11 | 25.03597 | 102.87779 | 10026 ft | 253 kts | 226° |
| 2026-04-27 17:11 | 25.02300 | 102.86417 | 10621 ft | 257 kts | 226° |
| 2026-04-27 17:12 | 25.00707 | 102.84744 | 11410 ft | 260 kts | 227° |
| 2026-04-27 17:12 | 24.99679 | 102.83665 | 11921 ft | 263 kts | 227° |
| 2026-04-27 17:12 | 24.99047 | 102.83002 | 12254 ft | 264 kts | 227° |